Home / US / Illinois / Meigs

Meigs, IL Weather

Current Report for Sun Apr 22 2018

As of 5:53 PM CDT SUN APR 22 2018

58°F 14°cMeigs weather conditions : Mostly Cloudy

Mostly Cloudy

Barometer: 30.25 inHg. rising

Humidity: 29%

Wind: NE. 15mph

Wind Gust: 17mph

Wind Chill: 55°F

Dew Point: 26°F rising

Visibility: 10.00mi.

Sunrise: 5:58 AM

Sunset: 7:38 PM

Moon Phase: Waxing Gibbous Moon

Daily and Hourly Summary

Loading Meigs IL Summary and Hourly data for today, tonight and tomorrow...
Forecast for Meigs, IL:
(Forecast based on TAF for )
0800 PM CDT SAT APR 21 2018
  
OVERNIGHT MORNING AFTERNOON EVENING OVERNIGHT
Mostly Cloudy Mostly Cloudy Overcast Overcast Overcast
Mostly
Cloudy
Mostly
Cloudy
Overcast Overcast Overcast
Original Encoded TAF:
Dated: 0800 PM CDT SAT APR 21 2018
2018/04/22 21:58
TAF 
      AMD KMDW 222058Z 2221/2324 07012G18KT P6SM BKN250 
     FM230100 06007KT P6SM BKN250 
     FM231500 05010KT P6SM SCT120 OVC250

Temperatures Today (View More Charts)

Meigs, IL updates by locals

Write your own report, forecast, or traffic update:

Please note by clicking on "Post" you acknowledge that you have read the Terms of Service and the report and/or forecast you are posting is in compliance with such terms. Be respectful. An inappropriate post will be removed by a moderator. If you are not finding the information you want, please be sure to note the navigation tabs just above the breadcrumbs, which are links to other data relating to this city.